sensor_id;sensor_type;location;lat;lon;timestamp;P1;P2;P0
66336;PMS1003;53139;45.576;5.304;2023-07-16T00:02:08;0.00;0.00;0.00
66336;PMS1003;53139;45.576;5.304;2023-07-16T00:05:09;0.75;0.75;0.00
66336;PMS1003;53139;45.576;5.304;2023-07-16T00:08:09;1.00;1.00;1.00
66336;PMS1003;53139;45.576;5.304;2023-07-16T00:11:09;2.00;1.00;1.00
66336;PMS1003;53139;45.576;5.304;2023-07-16T00:14:10;1.00;1.00;0.00
66336;PMS1003;53139;45.576;5.304;2023-07-16T00:17:12;0.50;0.25;0.25
66336;PMS1003;53139;45.576;5.304;2023-07-16T00:20:12;0.50;0.50;0.25
66336;PMS1003;53139;45.576;5.304;2023-07-16T00:23:12;0.00;0.00;0.00
66336;PMS1003;53139;45.576;5.304;2023-07-16T00:26:13;2.25;0.50;0.00
66336;PMS1003;53139;45.576;5.304;2023-07-16T00:29:13;0.00;0.00;0.00
66336;PMS1003;53139;45.576;5.304;2023-07-16T00:32:14;1.00;0.00;0.00
66336;PMS1003;53139;45.576;5.304;2023-07-16T00:35:14;1.50;0.75;0.25
66336;PMS1003;53139;45.576;5.304;2023-07-16T00:38:16;3.50;3.50;2.50
66336;PMS1003;53139;45.576;5.304;2023-07-16T00:41:18;1.00;1.00;1.00
66336;PMS1003;53139;45.576;5.304;2023-07-16T00:44:18;5.50;3.75;3.00
66336;PMS1003;53139;45.576;5.304;2023-07-16T00:47:19;2.25;2.25;1.75
66336;PMS1003;53139;45.576;5.304;2023-07-16T00:50:20;1.00;1.00;1.00
66336;PMS1003;53139;45.576;5.304;2023-07-16T00:53:20;2.00;1.00;1.00
66336;PMS1003;53139;45.576;5.304;2023-07-16T00:56:21;0.00;0.00;0.00
66336;PMS1003;53139;45.576;5.304;2023-07-16T00:59:22;0.25;0.00;0.00
66336;PMS1003;53139;45.576;5.304;2023-07-16T01:02:23;0.00;0.00;0.00
66336;PMS1003;53139;45.576;5.304;2023-07-16T01:05:24;0.50;0.00;0.00
66336;PMS1003;53139;45.576;5.304;2023-07-16T01:08:37;0.00;0.00;0.00
66336;PMS1003;53139;45.576;5.304;2023-07-16T01:11:46;0.00;0.00;0.00
66336;PMS1003;53139;45.576;5.304;2023-07-16T01:14:48;0.75;0.75;0.00
66336;PMS1003;53139;45.576;5.304;2023-07-16T01:17:50;2.00;0.25;0.00
66336;PMS1003;53139;45.576;5.304;2023-07-16T01:20:51;1.00;0.00;0.00
66336;PMS1003;53139;45.576;5.304;2023-07-16T01:30:33;1.75;1.00;0.50
66336;PMS1003;53139;45.576;5.304;2023-07-16T01:33:38;2.00;0.00;0.00
66336;PMS1003;53139;45.576;5.304;2023-07-16T01:36:42;1.00;1.00;0.00
66336;PMS1003;53139;45.576;5.304;2023-07-16T01:39:44;0.00;0.00;0.00
66336;PMS1003;53139;45.576;5.304;2023-07-16T01:42:44;3.00;1.00;0.00
66336;PMS1003;53139;45.576;5.304;2023-07-16T01:45:45;0.00;0.00;0.00
66336;PMS1003;53139;45.576;5.304;2023-07-16T01:48:45;1.75;1.00;0.75
66336;PMS1003;53139;45.576;5.304;2023-07-16T01:51:45;0.00;0.00;0.00
66336;PMS1003;53139;45.576;5.304;2023-07-16T01:54:46;0.00;0.00;0.00
66336;PMS1003;53139;45.576;5.304;2023-07-16T01:57:46;1.75;0.00;0.00
66336;PMS1003;53139;45.576;5.304;2023-07-16T02:00:47;0.25;0.25;0.00
66336;PMS1003;53139;45.576;5.304;2023-07-16T02:03:48;0.00;0.00;0.00
66336;PMS1003;53139;45.576;5.304;2023-07-16T02:06:48;1.00;1.00;0.75
66336;PMS1003;53139;45.576;5.304;2023-07-16T02:09:49;0.50;0.00;0.00
66336;PMS1003;53139;45.576;5.304;2023-07-16T02:12:49;0.75;0.00;0.00
66336;PMS1003;53139;45.576;5.304;2023-07-16T02:15:49;0.00;0.00;0.00
66336;PMS1003;53139;45.576;5.304;2023-07-16T02:18:50;0.00;0.00;0.00
66336;PMS1003;53139;45.576;5.304;2023-07-16T02:21:50;2.00;1.75;1.00
66336;PMS1003;53139;45.576;5.304;2023-07-16T02:24:50;0.00;0.00;0.00
66336;PMS1003;53139;45.576;5.304;2023-07-16T02:27:51;3.25;1.00;1.00
66336;PMS1003;53139;45.576;5.304;2023-07-16T02:30:51;0.75;0.25;0.00
66336;PMS1003;53139;45.576;5.304;2023-07-16T02:33:52;0.75;0.00;0.00
66336;PMS1003;53139;45.576;5.304;2023-07-16T02:36:52;1.00;0.75;0.00
66336;PMS1003;53139;45.576;5.304;2023-07-16T02:39:52;0.00;0.00;0.00
66336;PMS1003;53139;45.576;5.304;2023-07-16T02:42:53;0.75;0.00;0.00
66336;PMS1003;53139;45.576;5.304;2023-07-16T02:45:53;1.00;1.00;0.75
66336;PMS1003;53139;45.576;5.304;2023-07-16T02:48:53;0.25;0.25;0.25
66336;PMS1003;53139;45.576;5.304;2023-07-16T02:51:54;0.00;0.00;0.00
66336;PMS1003;53139;45.576;5.304;2023-07-16T02:54:54;1.00;0.00;0.00
66336;PMS1003;53139;45.576;5.304;2023-07-16T02:57:54;0.25;0.25;0.00
66336;PMS1003;53139;45.576;5.304;2023-07-16T03:00:55;0.00;0.00;0.00
66336;PMS1003;53139;45.576;5.304;2023-07-16T03:03:56;2.00;1.00;0.50
66336;PMS1003;53139;45.576;5.304;2023-07-16T03:06:56;1.00;1.00;0.75
66336;PMS1003;53139;45.576;5.304;2023-07-16T03:09:57;0.00;0.00;0.00
66336;PMS1003;53139;45.576;5.304;2023-07-16T03:12:57;0.50;0.50;0.00
66336;PMS1003;53139;45.576;5.304;2023-07-16T03:15:57;3.00;0.00;0.00
66336;PMS1003;53139;45.576;5.304;2023-07-16T03:18:58;0.75;0.75;0.25
66336;PMS1003;53139;45.576;5.304;2023-07-16T03:21:58;0.00;0.00;0.00
66336;PMS1003;53139;45.576;5.304;2023-07-16T03:24:58;1.00;1.00;1.00
66336;PMS1003;53139;45.576;5.304;2023-07-16T03:27:59;0.75;0.75;0.50
66336;PMS1003;53139;45.576;5.304;2023-07-16T03:30:59;0.75;0.75;0.00
66336;PMS1003;53139;45.576;5.304;2023-07-16T03:34:01;0.25;0.25;0.00
66336;PMS1003;53139;45.576;5.304;2023-07-16T03:37:01;0.00;0.00;0.00
66336;PMS1003;53139;45.576;5.304;2023-07-16T03:40:12;2.50;2.50;2.00
66336;PMS1003;53139;45.576;5.304;2023-07-16T03:43:15;3.00;2.00;2.00
66336;PMS1003;53139;45.576;5.304;2023-07-16T03:46:16;2.75;2.75;2.00
66336;PMS1003;53139;45.576;5.304;2023-07-16T03:49:16;2.50;1.00;1.00
66336;PMS1003;53139;45.576;5.304;2023-07-16T03:52:17;1.00;1.00;1.00
66336;PMS1003;53139;45.576;5.304;2023-07-16T03:55:17;1.75;1.75;1.00
66336;PMS1003;53139;45.576;5.304;2023-07-16T03:58:18;3.00;1.25;1.00
66336;PMS1003;53139;45.576;5.304;2023-07-16T04:01:27;1.00;1.00;0.50
66336;PMS1003;53139;45.576;5.304;2023-07-16T04:04:48;3.25;1.25;1.00
66336;PMS1003;53139;45.576;5.304;2023-07-16T04:08:25;0.25;0.25;0.25
66336;PMS1003;53139;45.576;5.304;2023-07-16T04:11:53;1.00;1.00;1.00
66336;PMS1003;53139;45.576;5.304;2023-07-16T04:15:06;1.75;1.75;1.50
66336;PMS1003;53139;45.576;5.304;2023-07-16T04:18:21;0.75;0.75;0.75
66336;PMS1003;53139;45.576;5.304;2023-07-16T04:21:22;1.25;1.25;1.25
66336;PMS1003;53139;45.576;5.304;2023-07-16T04:24:26;2.00;2.00;1.50
66336;PMS1003;53139;45.576;5.304;2023-07-16T04:27:27;1.75;1.75;1.00
66336;PMS1003;53139;45.576;5.304;2023-07-16T04:30:28;3.00;1.25;0.75
66336;PMS1003;53139;45.576;5.304;2023-07-16T04:33:29;0.00;0.00;0.00
66336;PMS1003;53139;45.576;5.304;2023-07-16T04:36:30;0.75;0.75;0.75
66336;PMS1003;53139;45.576;5.304;2023-07-16T04:39:30;2.25;0.75;0.75
66336;PMS1003;53139;45.576;5.304;2023-07-16T04:42:31;1.25;0.75;0.75
66336;PMS1003;53139;45.576;5.304;2023-07-16T04:45:32;1.50;1.50;1.00
66336;PMS1003;53139;45.576;5.304;2023-07-16T04:48:32;1.75;1.75;0.75
66336;PMS1003;53139;45.576;5.304;2023-07-16T04:51:33;2.75;1.00;1.00
66336;PMS1003;53139;45.576;5.304;2023-07-16T04:54:37;2.00;1.75;1.00
66336;PMS1003;53139;45.576;5.304;2023-07-16T04:57:38;1.25;1.25;0.50
66336;PMS1003;53139;45.576;5.304;2023-07-16T05:00:39;2.00;1.00;1.00
66336;PMS1003;53139;45.576;5.304;2023-07-16T05:03:40;3.75;1.50;1.00
66336;PMS1003;53139;45.576;5.304;2023-07-16T05:06:40;1.00;1.00;0.50
66336;PMS1003;53139;45.576;5.304;2023-07-16T05:09:42;3.00;1.75;1.00
66336;PMS1003;53139;45.576;5.304;2023-07-16T05:12:43;2.00;2.00;1.00
66336;PMS1003;53139;45.576;5.304;2023-07-16T05:15:43;1.50;1.50;1.50
66336;PMS1003;53139;45.576;5.304;2023-07-16T05:18:44;1.50;1.50;1.00
66336;PMS1003;53139;45.576;5.304;2023-07-16T05:21:45;2.00;2.00;1.25
66336;PMS1003;53139;45.576;5.304;2023-07-16T05:24:46;2.00;1.00;1.00
66336;PMS1003;53139;45.576;5.304;2023-07-16T05:27:46;1.00;1.00;1.00
66336;PMS1003;53139;45.576;5.304;2023-07-16T05:30:47;2.50;1.50;1.00
66336;PMS1003;53139;45.576;5.304;2023-07-16T05:33:47;2.00;1.50;1.00
66336;PMS1003;53139;45.576;5.304;2023-07-16T05:36:48;2.75;1.00;0.50
66336;PMS1003;53139;45.576;5.304;2023-07-16T05:39:48;1.00;1.00;1.00
66336;PMS1003;53139;45.576;5.304;2023-07-16T05:42:49;3.50;2.00;1.00
66336;PMS1003;53139;45.576;5.304;2023-07-16T05:45:49;1.00;1.00;1.00
66336;PMS1003;53139;45.576;5.304;2023-07-16T05:48:49;2.75;1.00;1.00
66336;PMS1003;53139;45.576;5.304;2023-07-16T05:51:50;1.75;1.75;1.00
66336;PMS1003;53139;45.576;5.304;2023-07-16T05:54:50;2.00;1.00;1.00
66336;PMS1003;53139;45.576;5.304;2023-07-16T05:57:51;2.50;1.50;1.00
66336;PMS1003;53139;45.576;5.304;2023-07-16T06:00:51;1.00;1.00;0.50
66336;PMS1003;53139;45.576;5.304;2023-07-16T06:03:52;2.00;2.00;1.00
66336;PMS1003;53139;45.576;5.304;2023-07-16T06:06:53;1.00;0.25;0.00
66336;PMS1003;53139;45.576;5.304;2023-07-16T06:09:54;1.25;1.25;1.00
66336;PMS1003;53139;45.576;5.304;2023-07-16T06:12:54;1.25;1.25;1.00
66336;PMS1003;53139;45.576;5.304;2023-07-16T06:15:54;1.00;1.00;1.00
66336;PMS1003;53139;45.576;5.304;2023-07-16T06:18:55;1.00;1.00;1.00
66336;PMS1003;53139;45.576;5.304;2023-07-16T06:21:55;4.50;1.00;1.00
66336;PMS1003;53139;45.576;5.304;2023-07-16T06:24:56;2.00;2.00;1.00
66336;PMS1003;53139;45.576;5.304;2023-07-16T06:27:57;2.00;2.00;1.00
66336;PMS1003;53139;45.576;5.304;2023-07-16T06:30:57;3.00;1.50;1.00
66336;PMS1003;53139;45.576;5.304;2023-07-16T06:34:06;1.75;1.00;1.00
66336;PMS1003;53139;45.576;5.304;2023-07-16T06:37:16;1.00;1.00;1.00
66336;PMS1003;53139;45.576;5.304;2023-07-16T06:40:24;2.00;2.00;1.50
66336;PMS1003;53139;45.576;5.304;2023-07-16T06:43:42;2.00;1.75;1.00
66336;PMS1003;53139;45.576;5.304;2023-07-16T06:47:02;3.00;2.00;2.00
66336;PMS1003;53139;45.576;5.304;2023-07-16T06:50:06;1.00;1.00;0.00
66336;PMS1003;53139;45.576;5.304;2023-07-16T06:53:07;3.00;2.00;1.75
66336;PMS1003;53139;45.576;5.304;2023-07-16T06:56:08;1.25;1.25;1.00
66336;PMS1003;53139;45.576;5.304;2023-07-16T06:59:12;0.75;0.75;0.50
66336;PMS1003;53139;45.576;5.304;2023-07-16T07:02:15;2.00;1.00;1.00
66336;PMS1003;53139;45.576;5.304;2023-07-16T07:05:42;1.00;0.25;0.00
66336;PMS1003;53139;45.576;5.304;2023-07-16T07:08:55;2.00;2.00;2.00
66336;PMS1003;53139;45.576;5.304;2023-07-16T07:11:58;1.00;1.00;1.00
66336;PMS1003;53139;45.576;5.304;2023-07-16T07:14:59;1.00;1.00;1.00
66336;PMS1003;53139;45.576;5.304;2023-07-16T07:17:59;2.00;1.00;1.00
66336;PMS1003;53139;45.576;5.304;2023-07-16T07:21:00;1.00;1.00;0.25
66336;PMS1003;53139;45.576;5.304;2023-07-16T07:24:00;3.25;2.00;1.75
66336;PMS1003;53139;45.576;5.304;2023-07-16T07:27:01;2.00;2.00;1.00
66336;PMS1003;53139;45.576;5.304;2023-07-16T07:30:02;1.00;1.00;1.00
66336;PMS1003;53139;45.576;5.304;2023-07-16T07:33:09;2.00;1.00;0.75
66336;PMS1003;53139;45.576;5.304;2023-07-16T07:36:42;2.00;1.00;1.00
66336;PMS1003;53139;45.576;5.304;2023-07-16T07:39:45;3.00;1.00;1.00
66336;PMS1003;53139;45.576;5.304;2023-07-16T07:42:52;1.00;1.00;1.00
66336;PMS1003;53139;45.576;5.304;2023-07-16T07:45:56;1.00;1.00;1.00
66336;PMS1003;53139;45.576;5.304;2023-07-16T07:49:05;2.00;1.00;1.00
66336;PMS1003;53139;45.576;5.304;2023-07-16T07:52:09;1.00;1.00;1.00
66336;PMS1003;53139;45.576;5.304;2023-07-16T07:55:33;1.50;1.00;1.00
66336;PMS1003;53139;45.576;5.304;2023-07-16T07:58:55;2.00;2.00;1.00
66336;PMS1003;53139;45.576;5.304;2023-07-16T08:01:56;3.75;1.00;1.00
66336;PMS1003;53139;45.576;5.304;2023-07-16T08:04:57;2.00;1.00;1.00
66336;PMS1003;53139;45.576;5.304;2023-07-16T08:07:57;1.50;1.50;1.00
66336;PMS1003;53139;45.576;5.304;2023-07-16T08:10:57;2.00;2.00;1.50
66336;PMS1003;53139;45.576;5.304;2023-07-16T08:13:58;1.00;1.00;0.50
66336;PMS1003;53139;45.576;5.304;2023-07-16T08:16:58;1.25;1.25;1.00
66336;PMS1003;53139;45.576;5.304;2023-07-16T08:19:58;1.00;1.00;0.00
66336;PMS1003;53139;45.576;5.304;2023-07-16T08:22:59;2.00;1.75;1.00
66336;PMS1003;53139;45.576;5.304;2023-07-16T08:25:59;3.00;1.75;1.00
66336;PMS1003;53139;45.576;5.304;2023-07-16T08:29:00;0.50;0.00;0.00
66336;PMS1003;53139;45.576;5.304;2023-07-16T08:32:01;1.50;0.00;0.00
66336;PMS1003;53139;45.576;5.304;2023-07-16T08:35:01;2.00;1.00;0.00
66336;PMS1003;53139;45.576;5.304;2023-07-16T08:38:02;1.75;1.75;1.00
66336;PMS1003;53139;45.576;5.304;2023-07-16T08:41:02;1.25;1.25;1.00
66336;PMS1003;53139;45.576;5.304;2023-07-16T08:44:03;3.00;0.00;0.00
66336;PMS1003;53139;45.576;5.304;2023-07-16T08:47:04;0.50;0.50;0.50
66336;PMS1003;53139;45.576;5.304;2023-07-16T08:50:06;1.75;0.75;0.00
66336;PMS1003;53139;45.576;5.304;2023-07-16T08:53:07;1.00;1.00;1.00
66336;PMS1003;53139;45.576;5.304;2023-07-16T08:56:08;1.50;1.00;0.00
66336;PMS1003;53139;45.576;5.304;2023-07-16T08:59:09;0.25;0.25;0.00
66336;PMS1003;53139;45.576;5.304;2023-07-16T09:02:11;0.75;0.50;0.50
66336;PMS1003;53139;45.576;5.304;2023-07-16T09:05:12;1.50;0.75;0.00
66336;PMS1003;53139;45.576;5.304;2023-07-16T09:08:15;0.25;0.25;0.25
66336;PMS1003;53139;45.576;5.304;2023-07-16T09:11:16;1.00;0.25;0.25
66336;PMS1003;53139;45.576;5.304;2023-07-16T09:14:21;2.50;1.00;0.75
66336;PMS1003;53139;45.576;5.304;2023-07-16T09:17:22;3.00;1.75;1.00
66336;PMS1003;53139;45.576;5.304;2023-07-16T09:20:23;1.50;1.00;1.00
66336;PMS1003;53139;45.576;5.304;2023-07-16T09:23:24;1.00;1.00;0.75
66336;PMS1003;53139;45.576;5.304;2023-07-16T09:26:28;2.00;1.25;1.00
66336;PMS1003;53139;45.576;5.304;2023-07-16T09:29:28;0.00;0.00;0.00
66336;PMS1003;53139;45.576;5.304;2023-07-16T09:32:38;1.00;1.00;1.00
66336;PMS1003;53139;45.576;5.304;2023-07-16T09:35:42;2.00;1.00;1.00
66336;PMS1003;53139;45.576;5.304;2023-07-16T09:38:42;1.00;1.00;1.00
66336;PMS1003;53139;45.576;5.304;2023-07-16T09:41:44;1.00;1.00;1.00
66336;PMS1003;53139;45.576;5.304;2023-07-16T09:44:47;1.00;1.00;0.00
66336;PMS1003;53139;45.576;5.304;2023-07-16T09:47:48;0.00;0.00;0.00
66336;PMS1003;53139;45.576;5.304;2023-07-16T09:50:52;0.00;0.00;0.00
66336;PMS1003;53139;45.576;5.304;2023-07-16T09:53:53;3.50;2.00;1.00
66336;PMS1003;53139;45.576;5.304;2023-07-16T09:56:55;1.75;1.25;1.00
66336;PMS1003;53139;45.576;5.304;2023-07-16T10:00:02;1.00;1.00;1.00
66336;PMS1003;53139;45.576;5.304;2023-07-16T10:03:08;0.00;0.00;0.00
66336;PMS1003;53139;45.576;5.304;2023-07-16T10:06:09;0.25;0.25;0.00
66336;PMS1003;53139;45.576;5.304;2023-07-16T10:09:30;1.00;1.00;0.50
66336;PMS1003;53139;45.576;5.304;2023-07-16T10:12:35;1.00;1.00;1.00
66336;PMS1003;53139;45.576;5.304;2023-07-16T10:15:57;1.00;1.00;0.00
66336;PMS1003;53139;45.576;5.304;2023-07-16T10:19:05;1.00;1.00;0.75
66336;PMS1003;53139;45.576;5.304;2023-07-16T10:22:06;0.00;0.00;0.00
66336;PMS1003;53139;45.576;5.304;2023-07-16T10:25:10;0.50;0.50;0.50
66336;PMS1003;53139;45.576;5.304;2023-07-16T10:28:41;1.75;0.25;0.25
66336;PMS1003;53139;45.576;5.304;2023-07-16T10:31:42;1.00;1.00;1.00
66336;PMS1003;53139;45.576;5.304;2023-07-16T10:34:43;0.75;0.75;0.50
66336;PMS1003;53139;45.576;5.304;2023-07-16T10:37:43;1.00;1.00;1.00
66336;PMS1003;53139;45.576;5.304;2023-07-16T10:40:44;0.00;0.00;0.00
66336;PMS1003;53139;45.576;5.304;2023-07-16T10:43:45;1.00;1.00;1.00
66336;PMS1003;53139;45.576;5.304;2023-07-16T10:46:46;2.50;1.00;1.00
66336;PMS1003;53139;45.576;5.304;2023-07-16T10:50:00;2.00;1.00;1.00
66336;PMS1003;53139;45.576;5.304;2023-07-16T10:53:03;1.00;1.00;0.75
66336;PMS1003;53139;45.576;5.304;2023-07-16T10:56:03;0.25;0.25;0.00
66336;PMS1003;53139;45.576;5.304;2023-07-16T10:59:24;0.75;0.75;0.75
66336;PMS1003;53139;45.576;5.304;2023-07-16T11:02:25;0.00;0.00;0.00
66336;PMS1003;53139;45.576;5.304;2023-07-16T11:05:29;1.00;0.75;0.50
66336;PMS1003;53139;45.576;5.304;2023-07-16T11:09:11;0.75;0.75;0.50
66336;PMS1003;53139;45.576;5.304;2023-07-16T11:12:41;3.00;1.00;0.50
66336;PMS1003;53139;45.576;5.304;2023-07-16T11:16:35;0.75;0.75;0.75
66336;PMS1003;53139;45.576;5.304;2023-07-16T11:20:54;0.75;0.75;0.00
66336;PMS1003;53139;45.576;5.304;2023-07-16T11:24:53;2.00;0.75;0.75
66336;PMS1003;53139;45.576;5.304;2023-07-16T11:28:54;1.25;1.00;0.00
66336;PMS1003;53139;45.576;5.304;2023-07-16T11:32:57;2.25;1.50;1.25
66336;PMS1003;53139;45.576;5.304;2023-07-16T11:36:43;0.50;0.50;0.00
66336;PMS1003;53139;45.576;5.304;2023-07-16T11:40:17;1.75;1.75;1.00
66336;PMS1003;53139;45.576;5.304;2023-07-16T11:43:22;3.50;2.00;1.75
66336;PMS1003;53139;45.576;5.304;2023-07-16T11:46:47;1.00;1.00;1.00
66336;PMS1003;53139;45.576;5.304;2023-07-16T11:50:15;1.75;1.75;1.75
66336;PMS1003;53139;45.576;5.304;2023-07-16T11:53:37;3.50;3.00;2.25
66336;PMS1003;53139;45.576;5.304;2023-07-16T11:56:44;1.00;1.00;1.00
66336;PMS1003;53139;45.576;5.304;2023-07-16T12:00:48;1.50;0.75;0.75
66336;PMS1003;53139;45.576;5.304;2023-07-16T12:04:47;1.50;0.50;0.25
66336;PMS1003;53139;45.576;5.304;2023-07-16T12:08:29;1.00;1.00;0.50
66336;PMS1003;53139;45.576;5.304;2023-07-16T12:12:14;1.75;1.75;1.75
66336;PMS1003;53139;45.576;5.304;2023-07-16T12:15:15;1.75;1.00;0.75
66336;PMS1003;53139;45.576;5.304;2023-07-16T12:18:31;0.00;0.00;0.00
66336;PMS1003;53139;45.576;5.304;2023-07-16T12:21:51;1.50;0.50;0.00
66336;PMS1003;53139;45.576;5.304;2023-07-16T12:24:52;0.75;0.75;0.75
66336;PMS1003;53139;45.576;5.304;2023-07-16T12:28:11;1.50;1.00;0.75
66336;PMS1003;53139;45.576;5.304;2023-07-16T12:31:30;1.00;1.00;0.75
66336;PMS1003;53139;45.576;5.304;2023-07-16T12:34:31;1.75;1.75;1.75
66336;PMS1003;53139;45.576;5.304;2023-07-16T12:37:50;1.00;1.00;0.75
66336;PMS1003;53139;45.576;5.304;2023-07-16T12:41:43;0.25;0.25;0.00
66336;PMS1003;53139;45.576;5.304;2023-07-16T12:44:49;1.00;1.00;0.75
66336;PMS1003;53139;45.576;5.304;2023-07-16T12:48:11;1.00;1.00;0.75
66336;PMS1003;53139;45.576;5.304;2023-07-16T12:51:20;2.75;1.00;1.00
66336;PMS1003;53139;45.576;5.304;2023-07-16T12:54:48;1.00;1.00;1.00
66336;PMS1003;53139;45.576;5.304;2023-07-16T12:58:50;3.75;1.00;0.75
66336;PMS1003;53139;45.576;5.304;2023-07-16T13:02:21;1.00;1.00;0.75
66336;PMS1003;53139;45.576;5.304;2023-07-16T13:05:53;1.00;1.00;0.75
66336;PMS1003;53139;45.576;5.304;2023-07-16T13:09:42;0.75;0.75;0.25
66336;PMS1003;53139;45.576;5.304;2023-07-16T13:13:29;1.00;1.00;1.00
66336;PMS1003;53139;45.576;5.304;2023-07-16T13:17:25;3.00;0.75;0.75
66336;PMS1003;53139;45.576;5.304;2023-07-16T13:21:20;1.25;0.00;0.00
66336;PMS1003;53139;45.576;5.304;2023-07-16T13:25:14;1.75;1.75;0.75
66336;PMS1003;53139;45.576;5.304;2023-07-16T13:28:59;1.25;1.00;1.00
66336;PMS1003;53139;45.576;5.304;2023-07-16T14:39:31;0.75;0.75;0.75
66336;PMS1003;53139;45.576;5.304;2023-07-16T14:42:32;2.00;2.00;1.25
66336;PMS1003;53139;45.576;5.304;2023-07-16T14:45:51;1.00;1.00;1.00
66336;PMS1003;53139;45.576;5.304;2023-07-16T14:49:18;1.00;1.00;1.00
66336;PMS1003;53139;45.576;5.304;2023-07-16T14:52:28;1.00;1.00;0.00
66336;PMS1003;53139;45.576;5.304;2023-07-16T14:55:57;1.75;1.75;1.50
66336;PMS1003;53139;45.576;5.304;2023-07-16T14:59:17;1.50;1.50;1.50
66336;PMS1003;53139;45.576;5.304;2023-07-16T15:02:56;1.75;1.75;0.75
66336;PMS1003;53139;45.576;5.304;2023-07-16T15:06:23;1.50;1.50;0.75
66336;PMS1003;53139;45.576;5.304;2023-07-16T15:09:47;1.50;1.50;1.00
66336;PMS1003;53139;45.576;5.304;2023-07-16T15:12:50;1.25;1.25;1.00
66336;PMS1003;53139;45.576;5.304;2023-07-16T15:16:04;2.75;1.75;1.00
66336;PMS1003;53139;45.576;5.304;2023-07-16T15:19:20;0.75;0.50;0.50
66336;PMS1003;53139;45.576;5.304;2023-07-16T15:22:30;2.00;2.00;1.75
66336;PMS1003;53139;45.576;5.304;2023-07-16T15:25:49;3.75;1.75;1.00
66336;PMS1003;53139;45.576;5.304;2023-07-16T15:29:23;2.00;2.00;1.00
66336;PMS1003;53139;45.576;5.304;2023-07-16T15:32:56;2.00;2.00;2.00
66336;PMS1003;53139;45.576;5.304;2023-07-16T15:36:36;1.75;1.25;1.00
66336;PMS1003;53139;45.576;5.304;2023-07-16T15:39:40;2.50;1.75;0.75
66336;PMS1003;53139;45.576;5.304;2023-07-16T15:42:41;4.25;3.00;2.00
66336;PMS1003;53139;45.576;5.304;2023-07-16T15:45:49;2.00;2.00;1.75
66336;PMS1003;53139;45.576;5.304;2023-07-16T15:49:29;2.00;2.00;1.50
66336;PMS1003;53139;45.576;5.304;2023-07-16T15:52:40;2.25;1.00;0.75
66336;PMS1003;53139;45.576;5.304;2023-07-16T15:56:28;1.50;1.50;1.50
66336;PMS1003;53139;45.576;5.304;2023-07-16T16:00:00;2.00;2.00;2.00
66336;PMS1003;53139;45.576;5.304;2023-07-16T16:03:32;2.50;1.75;1.75
66336;PMS1003;53139;45.576;5.304;2023-07-16T16:07:27;3.25;2.25;1.75
66336;PMS1003;53139;45.576;5.304;2023-07-16T16:11:04;3.00;2.25;2.00
66336;PMS1003;53139;45.576;5.304;2023-07-16T16:14:48;2.50;2.50;2.00
66336;PMS1003;53139;45.576;5.304;2023-07-16T16:18:42;2.00;1.00;1.00
66336;PMS1003;53139;45.576;5.304;2023-07-16T16:22:44;1.50;1.50;1.25
66336;PMS1003;53139;45.576;5.304;2023-07-16T16:26:29;3.25;3.25;2.50
66336;PMS1003;53139;45.576;5.304;2023-07-16T16:29:57;1.75;1.75;1.75
66336;PMS1003;53139;45.576;5.304;2023-07-16T16:33:30;2.00;2.00;2.00
66336;PMS1003;53139;45.576;5.304;2023-07-16T16:37:00;1.00;1.00;1.00
66336;PMS1003;53139;45.576;5.304;2023-07-16T16:40:30;3.00;1.50;1.00
66336;PMS1003;53139;45.576;5.304;2023-07-16T16:44:13;1.75;1.75;1.00
66336;PMS1003;53139;45.576;5.304;2023-07-16T16:47:23;2.50;2.25;2.25
66336;PMS1003;53139;45.576;5.304;2023-07-16T16:50:29;2.00;2.00;2.00
66336;PMS1003;53139;45.576;5.304;2023-07-16T16:54:15;2.00;2.00;1.75
66336;PMS1003;53139;45.576;5.304;2023-07-16T16:57:32;1.50;1.50;1.00
66336;PMS1003;53139;45.576;5.304;2023-07-16T17:00:52;3.50;2.00;1.75
66336;PMS1003;53139;45.576;5.304;2023-07-16T17:04:09;3.25;3.00;2.00
66336;PMS1003;53139;45.576;5.304;2023-07-16T17:07:35;3.00;2.75;2.00
66336;PMS1003;53139;45.576;5.304;2023-07-16T17:10:43;4.50;2.75;1.75
66336;PMS1003;53139;45.576;5.304;2023-07-16T17:14:09;3.75;3.00;2.50
66336;PMS1003;53139;45.576;5.304;2023-07-16T17:17:34;3.00;2.50;1.75
66336;PMS1003;53139;45.576;5.304;2023-07-16T17:20:58;2.25;2.25;1.75
66336;PMS1003;53139;45.576;5.304;2023-07-16T17:24:20;3.50;1.75;1.75
66336;PMS1003;53139;45.576;5.304;2023-07-16T17:27:40;1.75;1.75;1.50
66336;PMS1003;53139;45.576;5.304;2023-07-16T17:34:45;3.00;3.00;2.50
66336;PMS1003;53139;45.576;5.304;2023-07-16T17:38:34;2.00;2.00;1.50
66336;PMS1003;53139;45.576;5.304;2023-07-16T17:41:50;4.00;2.00;2.00
66336;PMS1003;53139;45.576;5.304;2023-07-16T17:45:05;4.00;3.50;3.00
66336;PMS1003;53139;45.576;5.304;2023-07-16T17:48:14;2.00;1.50;1.00
66336;PMS1003;53139;45.576;5.304;2023-07-16T17:51:15;4.00;4.00;3.00
66336;PMS1003;53139;45.576;5.304;2023-07-16T17:54:21;3.00;2.75;2.00
66336;PMS1003;53139;45.576;5.304;2023-07-16T17:57:36;5.00;2.00;2.00
66336;PMS1003;53139;45.576;5.304;2023-07-16T18:00:44;3.00;3.00;3.00
66336;PMS1003;53139;45.576;5.304;2023-07-16T18:04:29;2.50;2.25;1.50
66336;PMS1003;53139;45.576;5.304;2023-07-16T18:07:33;3.25;3.25;3.00
66336;PMS1003;53139;45.576;5.304;2023-07-16T18:10:50;4.00;3.00;2.00
66336;PMS1003;53139;45.576;5.304;2023-07-16T18:13:55;3.00;3.00;3.00
66336;PMS1003;53139;45.576;5.304;2023-07-16T18:17:05;9.25;5.25;4.75
66336;PMS1003;53139;45.576;5.304;2023-07-16T18:20:15;5.50;5.50;5.00
66336;PMS1003;53139;45.576;5.304;2023-07-16T18:23:42;7.75;7.75;5.00
66336;PMS1003;53139;45.576;5.304;2023-07-16T18:27:09;5.50;4.00;3.00
66336;PMS1003;53139;45.576;5.304;2023-07-16T18:30:22;9.00;8.50;7.25
66336;PMS1003;53139;45.576;5.304;2023-07-16T18:33:26;7.75;6.75;6.00
66336;PMS1003;53139;45.576;5.304;2023-07-16T18:36:26;8.00;8.00;7.00
66336;PMS1003;53139;45.576;5.304;2023-07-16T18:39:27;5.50;4.00;3.00
66336;PMS1003;53139;45.576;5.304;2023-07-16T18:42:27;6.00;3.75;3.00
66336;PMS1003;53139;45.576;5.304;2023-07-16T18:45:30;3.25;3.00;2.00
66336;PMS1003;53139;45.576;5.304;2023-07-16T18:48:42;3.00;3.00;2.75
66336;PMS1003;53139;45.576;5.304;2023-07-16T18:51:43;2.75;2.75;2.00
66336;PMS1003;53139;45.576;5.304;2023-07-16T18:54:45;2.50;1.25;1.00
66336;PMS1003;53139;45.576;5.304;2023-07-16T18:57:49;3.25;3.00;2.00
66336;PMS1003;53139;45.576;5.304;2023-07-16T19:01:04;2.00;2.00;1.00
66336;PMS1003;53139;45.576;5.304;2023-07-16T19:04:05;3.50;1.75;1.75
66336;PMS1003;53139;45.576;5.304;2023-07-16T19:07:06;2.25;2.25;2.00
66336;PMS1003;53139;45.576;5.304;2023-07-16T19:10:07;2.75;2.00;1.00
66336;PMS1003;53139;45.576;5.304;2023-07-16T19:13:07;2.25;2.00;2.00
66336;PMS1003;53139;45.576;5.304;2023-07-16T19:16:08;3.00;3.00;2.00
66336;PMS1003;53139;45.576;5.304;2023-07-16T19:19:08;2.50;2.50;2.50
66336;PMS1003;53139;45.576;5.304;2023-07-16T19:22:09;5.00;3.00;2.00
66336;PMS1003;53139;45.576;5.304;2023-07-16T19:25:10;2.25;2.00;2.00
66336;PMS1003;53139;45.576;5.304;2023-07-16T19:28:10;3.25;3.25;2.50
66336;PMS1003;53139;45.576;5.304;2023-07-16T19:31:14;3.00;3.00;2.00
66336;PMS1003;53139;45.576;5.304;2023-07-16T19:34:24;3.00;3.00;2.75
66336;PMS1003;53139;45.576;5.304;2023-07-16T19:37:25;4.00;4.00;2.75
66336;PMS1003;53139;45.576;5.304;2023-07-16T19:40:25;2.75;2.75;2.00
66336;PMS1003;53139;45.576;5.304;2023-07-16T19:43:25;4.00;3.00;3.00
66336;PMS1003;53139;45.576;5.304;2023-07-16T19:46:26;4.00;3.00;2.25
66336;PMS1003;53139;45.576;5.304;2023-07-16T19:49:27;4.25;3.50;2.00
66336;PMS1003;53139;45.576;5.304;2023-07-16T19:52:27;3.50;3.50;3.25
66336;PMS1003;53139;45.576;5.304;2023-07-16T19:55:27;4.75;3.00;2.00